createdAt,value
2018-10-02T00:02:22.358Z,100288.09
2018-10-02T00:04:51.131Z,100291.64
2018-10-02T00:07:20.883Z,100282.70
2018-10-02T00:09:49.696Z,100286.74
2018-10-02T00:12:23.614Z,100278.83
2018-10-02T00:14:52.432Z,100273.94
2018-10-02T00:17:21.212Z,100281.64
2018-10-02T00:19:50.127Z,100279.32
2018-10-02T00:22:18.888Z,100273.25
2018-10-02T00:24:47.643Z,100270.19
2018-10-02T00:27:16.387Z,100275.20
2018-10-02T00:29:45.145Z,100279.73
2018-10-02T00:32:13.963Z,100278.39
2018-10-02T00:34:42.752Z,100279.24
2018-10-02T00:37:11.503Z,100279.73
2018-10-02T00:39:40.291Z,100277.56
2018-10-02T00:42:09.287Z,100275.86
2018-10-02T00:44:38.019Z,100269.62
2018-10-02T00:47:06.799Z,100267.09
2018-10-02T00:49:35.519Z,100261.70
2018-10-02T00:52:04.438Z,100260.70
2018-10-02T00:54:33.227Z,100263.05
2018-10-02T00:57:01.943Z,100253.27
2018-10-02T00:59:30.844Z,100254.13
2018-10-02T01:01:59.640Z,100247.03
2018-10-02T01:04:28.454Z,100251.07
2018-10-02T01:06:57.224Z,100249.23
2018-10-02T01:09:25.971Z,100245.69
2018-10-02T01:11:54.691Z,100246.55
2018-10-02T01:14:23.469Z,100247.89
2018-10-02T01:16:52.269Z,100241.33
2018-10-02T01:19:21.072Z,100241.66
2018-10-02T01:21:49.826Z,100233.25
2018-10-02T01:24:18.588Z,100235.45
2018-10-02T01:26:47.470Z,100228.85
2018-10-02T01:29:16.213Z,100236.44
2018-10-02T01:31:45.002Z,100241.33
2018-10-02T01:34:13.737Z,100234.72
2018-10-02T01:36:42.597Z,100232.03
2018-10-02T01:39:11.410Z,100232.03
2018-10-02T01:41:40.100Z,100230.69
2018-10-02T01:44:08.869Z,100227.66
2018-10-02T01:46:37.608Z,100219.23
2018-10-02T01:49:06.431Z,100223.27
2018-10-02T01:51:35.209Z,100218.38
2018-10-02T01:54:03.982Z,100218.54
2018-10-02T01:56:32.724Z,100215.84
2018-10-02T01:59:01.503Z,100214.87
2018-10-02T02:01:30.229Z,100211.81
2018-10-02T02:03:58.918Z,100211.81
2018-10-02T02:06:27.704Z,100206.43
2018-10-02T02:08:56.482Z,100211.32
2018-10-02T02:11:25.398Z,100202.39
2018-10-02T02:13:54.151Z,100200.20
2018-10-02T02:16:22.919Z,100188.94
2018-10-02T02:18:51.651Z,100178.34
2018-10-02T02:21:20.364Z,100186.41
2018-10-02T02:23:49.160Z,100194.97
2018-10-02T02:26:17.907Z,100194.97
2018-10-02T02:28:46.689Z,100194.97
2018-10-02T02:31:15.403Z,100189.59
2018-10-02T02:33:44.136Z,100191.92
2018-10-02T02:36:12.996Z,100182.50
2018-10-02T02:38:41.733Z,100176.27
2018-10-02T02:41:10.562Z,100181.66
2018-10-02T02:43:39.296Z,100178.11
2018-10-02T02:46:08.520Z,100171.91
2018-10-02T02:48:42.505Z,100168.36
2018-10-02T02:51:16.471Z,100166.66
2018-10-02T02:53:45.269Z,100161.28
2018-10-02T02:56:14.030Z,100159.08
2018-10-02T02:58:42.870Z,100159.23
2018-10-02T03:01:11.617Z,100162.29
2018-10-02T03:03:40.414Z,100159.08
2018-10-02T03:06:09.599Z,100162.29
2018-10-02T03:08:38.301Z,100154.84
2018-10-02T03:11:07.124Z,100161.08
2018-10-02T03:13:35.948Z,100157.04
2018-10-02T03:16:04.836Z,100156.19
2018-10-02T03:18:33.607Z,100153.16
2018-10-02T03:21:02.541Z,100148.27
2018-10-02T03:23:31.316Z,100147.78
2018-10-02T03:26:00.097Z,100145.59
2018-10-02T03:28:28.813Z,100143.75
2018-10-02T03:30:57.562Z,100144.60
2018-10-02T03:33:26.313Z,100147.78
2018-10-02T03:35:55.095Z,100144.23
2018-10-02T03:38:23.839Z,100147.78
2018-10-02T03:40:52.594Z,100147.78
2018-10-02T03:43:21.335Z,100146.44
2018-10-02T03:45:50.150Z,100145.95
2018-10-02T03:48:18.879Z,100143.26
2018-10-02T03:50:47.663Z,100144.60
2018-10-02T03:53:16.444Z,100139.72
2018-10-02T03:55:45.231Z,100139.72
2018-10-02T03:58:13.956Z,100138.86
2018-10-02T04:00:42.750Z,100133.97
2018-10-02T04:03:11.570Z,100138.37
2018-10-02T04:05:40.278Z,100123.21
2018-10-02T04:08:09.035Z,100129.94
2018-10-02T04:10:37.748Z,100127.73
2018-10-02T04:13:06.667Z,100129.09
2018-10-02T04:15:35.495Z,100120.19
2018-10-02T04:18:04.697Z,100117.99
2018-10-02T04:20:33.448Z,100112.62
2018-10-02T04:23:02.231Z,100105.03
2018-10-02T04:25:30.957Z,100101.98
2018-10-02T04:27:59.830Z,100097.13
2018-10-02T04:30:28.551Z,100091.75
2018-10-02T04:32:57.303Z,100088.20
2018-10-02T04:35:26.033Z,100096.77
2018-10-02T04:37:54.877Z,100090.53
2018-10-02T04:40:23.606Z,100090.20
2018-10-02T04:42:52.518Z,100088.01
2018-10-02T04:45:21.257Z,100089.84
2018-10-02T04:47:53.191Z,100082.76
2018-10-02T04:50:23.001Z,100086.79
2018-10-02T04:52:51.754Z,100088.14
2018-10-02T04:55:20.541Z,100083.25
2018-10-02T04:57:49.243Z,100081.08
2018-10-02T05:00:18.234Z,100079.38
2018-10-02T05:02:46.994Z,100081.08
2018-10-02T05:05:15.812Z,100078.89
2018-10-02T05:07:44.583Z,100079.87
2018-10-02T05:10:13.347Z,100082.92
2018-10-02T05:12:42.068Z,100078.89
2018-10-02T05:15:10.806Z,100077.55
2018-10-02T05:17:39.537Z,100075.18
2018-10-02T05:20:08.380Z,100073.84
2018-10-02T05:22:37.107Z,100077.73
2018-10-02T05:25:05.863Z,100079.58
2018-10-02T05:27:34.649Z,100077.58
2018-10-02T05:30:03.972Z,100073.22
2018-10-02T05:32:32.770Z,100079.78
2018-10-02T05:35:01.574Z,100076.23
2018-10-02T05:37:30.340Z,100079.28
2018-10-02T05:39:59.072Z,100077.45
2018-10-02T05:42:27.857Z,100073.91
2018-10-02T05:44:56.677Z,100075.09
2018-10-02T05:47:25.445Z,100061.80
2018-10-02T05:49:54.208Z,100063.51
2018-10-02T05:52:22.976Z,100058.95
2018-10-02T05:54:51.795Z,100060.30
2018-10-02T05:57:20.661Z,100062.16
2018-10-02T05:59:49.425Z,100058.95
2018-10-02T06:02:20.352Z,100053.08
2018-10-02T06:04:49.205Z,100051.24
2018-10-02T06:07:18.033Z,100053.44
2018-10-02T06:09:46.812Z,100048.55
2018-10-02T06:12:15.539Z,100047.57
2018-10-02T06:14:44.304Z,100042.19
2018-10-02T06:17:13.047Z,100045.38
2018-10-02T06:19:41.899Z,100034.13
2018-10-02T06:22:10.747Z,100034.61
2018-10-02T06:24:39.668Z,100027.39
2018-10-02T06:27:08.481Z,100027.89
2018-10-02T06:29:37.237Z,100030.91
2018-10-02T06:32:06.691Z,100036.28
2018-10-02T06:34:35.667Z,100023.36
2018-10-02T06:37:04.456Z,100030.91
2018-10-02T06:39:34.434Z,100023.36
2018-10-02T06:42:03.543Z,100022.02
2018-10-02T06:44:33.119Z,100023.36
2018-10-02T06:47:01.839Z,100027.89
2018-10-02T06:49:30.583Z,100026.05
2018-10-02T06:51:59.394Z,100024.70
2018-10-02T06:54:28.192Z,100018.80
2018-10-02T06:56:57.083Z,100017.13
2018-10-02T06:59:25.845Z,100014.44
2018-10-02T07:01:54.654Z,100016.97
2018-10-02T07:04:23.429Z,100011.59
2018-10-02T07:06:52.241Z,100008.56
2018-10-02T07:09:21.103Z,100005.36
2018-10-02T07:11:49.885Z,100009.39
2018-10-02T07:14:18.645Z,100002.67
2018-10-02T07:16:47.398Z,100000.83
2018-10-02T07:19:16.185Z,100000.50
2018-10-02T07:21:44.950Z,99994.59
2018-10-02T07:24:13.708Z,99987.38
2018-10-02T07:26:42.547Z,99986.89
2018-10-02T07:29:11.260Z,99981.14
2018-10-02T07:31:40.007Z,99975.77
2018-10-02T07:34:08.790Z,99966.88
2018-10-02T07:36:37.591Z,99973.93
2018-10-02T07:39:08.077Z,99963.17
2018-10-02T07:41:36.866Z,99970.75
2018-10-02T07:44:05.741Z,99964.52
2018-10-02T07:46:34.570Z,99963.17
2018-10-02T07:49:03.316Z,99957.30
2018-10-02T07:51:32.086Z,99945.69
2018-10-02T07:54:00.956Z,99937.12
2018-10-02T07:56:29.863Z,99930.89
2018-10-02T07:58:58.659Z,99928.20
2018-10-02T08:01:27.430Z,99918.80
2018-10-02T08:03:56.260Z,99920.98
2018-10-02T08:06:25.064Z,99919.64
2018-10-02T08:08:53.841Z,99917.94
2018-10-02T08:11:22.712Z,99911.08
2018-10-02T08:13:51.533Z,99903.14
2018-10-02T08:16:20.344Z,99899.47
2018-10-02T08:18:49.100Z,99894.09
2018-10-02T08:21:17.867Z,99894.09
2018-10-02T08:23:46.640Z,99894.94
2018-10-02T08:26:15.387Z,99889.56
2018-10-02T08:28:44.123Z,99888.55
2018-10-02T08:31:12.872Z,99886.38
2018-10-02T08:33:41.657Z,99896.61
2018-10-02T08:36:10.581Z,99896.97
2018-10-02T08:38:39.222Z,99891.59
2018-10-02T08:41:08.081Z,99891.59
2018-10-02T08:43:36.895Z,99898.81
2018-10-02T08:46:05.655Z,99894.11
2018-10-02T08:48:34.430Z,99890.94
2018-10-02T08:51:03.234Z,99898.16
2018-10-02T08:53:32.021Z,99890.94
2018-10-02T08:56:00.814Z,99895.46
2018-10-02T08:58:29.525Z,99894.83
2018-10-02T09:00:58.451Z,99894.47
2018-10-02T09:03:27.255Z,99884.56
2018-10-02T09:05:56.074Z,99882.38
2018-10-02T09:08:24.853Z,99882.73
2018-10-02T09:10:53.673Z,99878.70
2018-10-02T09:13:22.453Z,99874.66
2018-10-02T09:15:51.490Z,99869.28
2018-10-02T09:18:20.216Z,99869.61
2018-10-02T09:20:49.053Z,99862.38
2018-10-02T09:23:17.889Z,99858.35
2018-10-02T09:25:46.686Z,99847.23
2018-10-02T09:28:15.481Z,99852.12
2018-10-02T09:30:49.418Z,99841.36
2018-10-02T09:33:23.479Z,99844.41
2018-10-02T09:35:57.417Z,99835.48
2018-10-02T09:38:31.372Z,99829.25
2018-10-02T09:41:05.200Z,99831.95
2018-10-02T09:43:39.315Z,99824.37
2018-10-02T09:46:08.055Z,99823.02
2018-10-02T09:48:36.883Z,99823.88
2018-10-02T09:51:05.746Z,99819.52
2018-10-02T09:53:34.497Z,99820.34
2018-10-02T09:56:03.393Z,99817.16
2018-10-02T09:58:32.188Z,99815.31
2018-10-02T10:01:06.050Z,99809.08
2018-10-02T10:03:35.287Z,99797.83
2018-10-02T10:06:04.102Z,99798.32
2018-10-02T10:08:32.920Z,99789.92
2018-10-02T10:11:01.723Z,99781.33
2018-10-02T10:13:30.467Z,99777.30
2018-10-02T10:15:59.208Z,99775.45
2018-10-02T10:18:28.046Z,99778.14
2018-10-02T10:20:56.844Z,99777.30
2018-10-02T10:23:25.796Z,99767.88
2018-10-02T10:25:54.639Z,99761.33
2018-10-02T10:28:23.473Z,99757.13
2018-10-02T10:30:52.326Z,99759.81
2018-10-02T10:33:21.161Z,99750.40
2018-10-02T10:35:49.924Z,99744.69
2018-10-02T10:38:18.807Z,99744.69
2018-10-02T10:40:47.688Z,99743.67
2018-10-02T10:43:16.425Z,99729.91
2018-10-02T10:45:45.227Z,99725.87
2018-10-02T10:48:14.059Z,99727.70
2018-10-02T10:50:42.859Z,99719.14
2018-10-02T10:53:11.616Z,99717.30
2018-10-02T10:55:40.484Z,99712.91
2018-10-02T10:58:09.250Z,99704.67
2018-10-02T11:00:38.037Z,99701.16
2018-10-02T11:03:06.799Z,99703.33
2018-10-02T11:05:35.539Z,99697.13
2018-10-02T11:08:04.376Z,99689.38
2018-10-02T11:10:33.143Z,99688.03
2018-10-02T11:13:01.957Z,99677.77
2018-10-02T11:15:32.151Z,99673.24
2018-10-02T11:18:01.079Z,99674.94
2018-10-02T11:20:35.387Z,99664.19
2018-10-02T11:23:04.406Z,99662.34
2018-10-02T11:25:33.241Z,99661.32
2018-10-02T11:28:02.090Z,99647.55
2018-10-02T11:30:30.856Z,99634.42
2018-10-02T11:32:59.637Z,99629.05
2018-10-02T11:35:28.472Z,99627.70
2018-10-02T11:37:57.276Z,99625.01
2018-10-02T11:40:26.083Z,99623.66
2018-10-02T11:42:54.860Z,99611.56
2018-10-02T11:45:23.610Z,99611.56
2018-10-02T11:47:52.380Z,99609.72
2018-10-02T11:50:21.221Z,99607.52
2018-10-02T11:52:50.004Z,99607.52
2018-10-02T11:55:18.859Z,99608.87
2018-10-02T11:57:47.657Z,99596.45
2018-10-02T12:00:16.535Z,99594.60
2018-10-02T12:02:45.310Z,99592.73
2018-10-02T12:05:14.155Z,99585.69
2018-10-02T12:07:42.907Z,99591.73
2018-10-02T12:10:11.729Z,99580.30
2018-10-02T12:12:40.549Z,99575.77
2018-10-02T12:15:09.359Z,99574.08
2018-10-02T12:17:38.103Z,99573.23
2018-10-02T12:20:07.054Z,99575.56
2018-10-02T12:22:35.832Z,99574.57
2018-10-02T12:25:04.887Z,99568.34
2018-10-02T12:27:34.618Z,99572.38
2018-10-02T12:30:03.543Z,99566.67
2018-10-02T12:32:32.328Z,99564.13
2018-10-02T12:35:01.121Z,99558.25
2018-10-02T12:37:29.912Z,99549.83
2018-10-02T12:39:59.031Z,99537.73
2018-10-02T12:42:27.756Z,99532.88
2018-10-02T12:44:57.050Z,99530.33
2018-10-02T12:47:25.827Z,99523.47
2018-10-02T12:49:54.683Z,99520.92
2018-10-02T12:52:23.652Z,99519.25
2018-10-02T12:54:52.401Z,99520.07
2018-10-02T12:57:21.217Z,99515.22
2018-10-02T12:59:49.999Z,99514.87
2018-10-02T13:02:18.769Z,99506.80
2018-10-02T13:04:47.522Z,99497.88
2018-10-02T13:07:16.284Z,99497.88
2018-10-02T13:09:45.041Z,99498.37
2018-10-02T13:12:13.837Z,99490.48
2018-10-02T13:14:42.924Z,99489.99
2018-10-02T13:17:11.823Z,99487.30
2018-10-02T13:19:40.623Z,99484.27
2018-10-02T13:22:09.414Z,99475.70
2018-10-02T13:24:38.203Z,99470.50
2018-10-02T13:27:06.948Z,99458.05
2018-10-02T13:29:35.695Z,99457.19
2018-10-02T13:32:04.472Z,99450.47
2018-10-02T13:34:33.391Z,99441.23
2018-10-02T13:37:02.089Z,99429.98
2018-10-02T13:39:30.881Z,99426.95
2018-10-02T13:41:59.695Z,99418.03
2018-10-02T13:44:28.425Z,99417.67
2018-10-02T13:46:57.150Z,99413.15
2018-10-02T13:49:25.913Z,99402.89
2018-10-02T13:51:54.676Z,99406.92
2018-10-02T13:54:23.462Z,99404.23
2018-10-02T13:56:52.248Z,99402.57
2018-10-02T13:59:21.031Z,99388.77
2018-10-02T14:01:49.840Z,99389.97
2018-10-02T14:04:18.629Z,99389.63
2018-10-02T14:06:47.358Z,99380.70
2018-10-02T14:09:16.150Z,99378.87
2018-10-02T14:11:44.950Z,99372.64
2018-10-02T14:14:13.705Z,99369.95
2018-10-02T14:16:42.444Z,99373.14
2018-10-02T14:19:11.217Z,99364.26
2018-10-02T14:21:40.113Z,99357.53
2018-10-02T14:24:08.856Z,99358.34
2018-10-02T14:26:37.689Z,99352.16
2018-10-02T14:29:06.688Z,99349.47
2018-10-02T14:31:35.539Z,99345.94
2018-10-02T14:34:04.939Z,99344.09
2018-10-02T14:36:33.867Z,99341.91
2018-10-02T14:39:02.810Z,99338.37
2018-10-02T14:41:31.589Z,99336.67
2018-10-02T14:44:00.440Z,99324.57
2018-10-02T14:46:29.264Z,99323.58
2018-10-02T14:48:58.095Z,99316.01
2018-10-02T14:51:26.915Z,99312.47
2018-10-02T14:53:55.728Z,99321.06
2018-10-02T14:56:24.559Z,99310.62
2018-10-02T14:58:53.363Z,99297.38
2018-10-02T15:01:22.123Z,99304.94
2018-10-02T15:03:50.909Z,99308.13
2018-10-02T15:06:19.704Z,99300.55
2018-10-02T15:08:48.464Z,99304.09
2018-10-02T15:11:17.316Z,99293.83
2018-10-02T15:13:46.074Z,99292.48
2018-10-02T15:16:14.905Z,99276.01
2018-10-02T15:18:43.667Z,99274.66
2018-10-02T15:21:12.535Z,99267.63
2018-10-02T15:23:41.427Z,99265.44
2018-10-02T15:26:10.165Z,99259.21
2018-10-02T15:28:38.920Z,99257.86
2018-10-02T15:31:07.731Z,99256.52
2018-10-02T15:33:36.434Z,99253.83
2018-10-02T15:36:05.223Z,99248.14
2018-10-02T15:38:34.038Z,99246.80
2018-10-02T15:41:03.008Z,99242.77
2018-10-02T15:43:31.801Z,99240.08
2018-10-02T15:46:00.766Z,99233.01
2018-10-02T15:48:29.539Z,99229.47
2018-10-02T15:50:58.389Z,99219.22
2018-10-02T15:53:27.112Z,99224.09
2018-10-02T15:55:55.969Z,99221.09
2018-10-02T15:58:24.783Z,99204.11
2018-10-02T16:00:53.840Z,99197.39
2018-10-02T16:03:22.739Z,99191.17
2018-10-02T16:05:51.528Z,99184.45
2018-10-02T16:08:20.363Z,99176.88
2018-10-02T16:10:49.169Z,99175.55
2018-10-02T16:13:17.921Z,99174.20
2018-10-02T16:15:46.988Z,99173.34
2018-10-02T16:18:15.906Z,99175.16
2018-10-02T16:20:44.610Z,99171.13
2018-10-02T16:23:13.506Z,99170.31
2018-10-02T16:25:42.304Z,99164.09
2018-10-02T16:28:11.070Z,99166.78
2018-10-02T16:30:39.919Z,99163.75
2018-10-02T16:33:08.754Z,99165.44
2018-10-02T16:35:37.573Z,99163.25
2018-10-02T16:38:06.683Z,99156.03
2018-10-02T16:40:35.566Z,99151.16
2018-10-02T16:43:05.541Z,99157.38
2018-10-02T16:45:34.328Z,99145.77
2018-10-02T16:48:03.304Z,99146.63
2018-10-02T16:50:32.157Z,99144.78
2018-10-02T16:53:01.034Z,99139.90
2018-10-02T16:55:29.865Z,99135.87
2018-10-02T16:57:58.765Z,99131.34
2018-10-02T17:00:27.609Z,99123.27
2018-10-02T17:02:56.329Z,99125.43
2018-10-02T17:05:25.168Z,99122.74
2018-10-02T17:07:54.129Z,99113.34
2018-10-02T17:10:22.992Z,99106.62
2018-10-02T17:12:52.176Z,99110.65
2018-10-02T17:15:21.240Z,99111.53
2018-10-02T17:17:50.200Z,99103.92
2018-10-02T17:20:19.201Z,99103.46
2018-10-02T17:22:49.158Z,99098.55
2018-10-02T17:25:18.125Z,99096.74
2018-10-02T17:27:47.153Z,99095.86
2018-10-02T17:30:16.052Z,99087.33
2018-10-02T17:32:45.018Z,99081.46
2018-10-02T17:35:13.963Z,99080.11
2018-10-02T17:37:42.893Z,99079.62
2018-10-02T17:40:11.917Z,99071.55
2018-10-02T17:42:40.834Z,99060.80
2018-10-02T17:45:09.936Z,99055.92
2018-10-02T17:47:38.886Z,99056.27
2018-10-02T17:50:07.760Z,99050.55
2018-10-02T17:52:36.605Z,99047.86
2018-10-02T17:55:05.715Z,99043.83
2018-10-02T17:57:34.665Z,99046.52
2018-10-02T18:00:03.941Z,99048.70
2018-10-02T18:02:32.765Z,99047.86
2018-10-02T18:05:01.804Z,99034.42
2018-10-02T18:07:30.852Z,99033.08
2018-10-02T18:10:00.031Z,99038.95
2018-10-02T18:12:28.779Z,99031.73
2018-10-02T18:14:58.050Z,99029.05
2018-10-02T18:17:26.901Z,99028.20
2018-10-02T18:19:56.725Z,99024.63
2018-10-02T18:22:25.573Z,99026.51
2018-10-02T18:24:54.516Z,99024.63
2018-10-02T18:27:23.744Z,99021.13
2018-10-02T18:29:52.741Z,99021.48
2018-10-02T18:32:21.779Z,99013.41
2018-10-02T18:34:50.920Z,99015.22
2018-10-02T18:37:19.880Z,99005.81
2018-10-02T18:39:48.951Z,99005.34
2018-10-02T18:42:17.892Z,99002.66
2018-10-02T18:44:46.920Z,98995.94
2018-10-02T18:47:15.989Z,98989.38
2018-10-02T18:49:44.914Z,98981.63
2018-10-02T18:52:13.962Z,98980.28
2018-10-02T18:54:42.963Z,98981.63
2018-10-02T18:57:12.117Z,98979.97
2018-10-02T18:59:42.448Z,98974.91
2018-10-02T19:02:11.367Z,98965.69
2018-10-02T19:04:40.172Z,98965.69
2018-10-02T19:07:09.004Z,98958.13
2018-10-02T19:09:38.057Z,98959.81
2018-10-02T19:12:15.991Z,98949.56
2018-10-02T19:14:44.824Z,98942.49
2018-10-02T19:17:13.744Z,98939.30
2018-10-02T19:19:47.733Z,98936.96
2018-10-02T19:22:16.889Z,98932.59
2018-10-02T19:24:45.843Z,98929.90
2018-10-02T19:27:14.646Z,98928.05
2018-10-02T19:29:43.473Z,98931.09
2018-10-02T19:32:15.394Z,98925.71
2018-10-02T19:34:44.628Z,98923.84
2018-10-02T19:37:18.702Z,98918.45
2018-10-02T19:39:47.505Z,98913.09
2018-10-02T19:42:16.733Z,98913.09
2018-10-02T19:44:45.675Z,98898.83
2018-10-02T19:47:14.557Z,98900.17
2018-10-02T19:49:43.322Z,98895.98
2018-10-02T19:52:13.559Z,98888.89
2018-10-02T19:54:42.932Z,98886.58
2018-10-02T19:57:15.455Z,98887.55
2018-10-02T19:59:44.508Z,98883.39
2018-10-02T20:02:13.709Z,98883.89
2018-10-02T20:04:42.574Z,98888.77
2018-10-02T20:07:11.400Z,98886.08
2018-10-02T20:09:40.266Z,98879.70
2018-10-02T20:12:09.188Z,98882.05
2018-10-02T20:14:38.281Z,98881.55
2018-10-02T20:17:07.300Z,98882.89
2018-10-02T20:19:36.102Z,98877.83
2018-10-02T20:22:05.166Z,98875.14
2018-10-02T20:24:33.992Z,98871.95
2018-10-02T20:27:03.711Z,98871.95
2018-10-02T20:29:32.490Z,98871.11
2018-10-02T20:32:01.309Z,98870.61
2018-10-02T20:34:30.188Z,98867.08
2018-10-02T20:36:59.123Z,98859.86
2018-10-02T20:39:28.655Z,98863.39
2018-10-02T20:41:57.602Z,98860.89
2018-10-02T20:44:26.509Z,98862.05
2018-10-02T20:46:55.283Z,98852.64
2018-10-02T20:49:24.168Z,98843.23
2018-10-02T20:51:53.122Z,98836.51
2018-10-02T20:54:22.148Z,98836.84
2018-10-02T20:56:50.958Z,98834.66
2018-10-02T20:59:21.107Z,98839.54
2018-10-02T21:01:50.073Z,98833.31
2018-10-02T21:04:18.990Z,98831.47
2018-10-02T21:06:47.837Z,98829.59
2018-10-02T21:09:16.680Z,98828.25
2018-10-02T21:11:45.698Z,98830.94
2018-10-02T21:14:14.608Z,98834.97
2018-10-02T21:16:43.457Z,98826.59
2018-10-02T21:19:12.339Z,98826.59
2018-10-02T21:21:41.284Z,98821.53
2018-10-02T21:24:10.097Z,98825.75
2018-10-02T21:26:38.905Z,98827.44
2018-10-02T21:29:07.727Z,98830.13
2018-10-02T21:31:36.551Z,98832.81
2018-10-02T21:34:05.829Z,98829.78
2018-10-02T21:36:34.663Z,98827.09
2018-10-02T21:39:04.168Z,98818.55
2018-10-02T21:41:33.086Z,98829.78
2018-10-02T21:44:01.894Z,98825.25
2018-10-02T21:46:30.776Z,98830.62
2018-10-02T21:48:59.623Z,98834.16
2018-10-02T21:51:28.481Z,98830.13
2018-10-02T21:53:57.459Z,98830.44
2018-10-02T21:56:26.450Z,98825.06
2018-10-02T21:58:55.311Z,98820.53
2018-10-02T22:01:28.284Z,98819.69
2018-10-02T22:03:57.159Z,98818.34
2018-10-02T22:06:25.972Z,98820.03
2018-10-02T22:08:54.794Z,98825.41
2018-10-02T22:11:23.623Z,98822.22
2018-10-02T22:13:52.409Z,98824.91
2018-10-02T22:16:21.230Z,98824.38
2018-10-02T22:18:50.009Z,98822.52
2018-10-02T22:21:18.813Z,98820.34
2018-10-02T22:23:47.759Z,98821.69
2018-10-02T22:26:16.631Z,98823.02
2018-10-02T22:28:45.402Z,98820.68
2018-10-02T22:31:14.165Z,98820.68
2018-10-02T22:33:42.965Z,98822.02
2018-10-02T22:36:11.799Z,98822.02
2018-10-02T22:38:40.548Z,98828.75
2018-10-02T22:41:09.331Z,98828.25
2018-10-02T22:43:38.109Z,98832.78
2018-10-02T22:46:07.865Z,98832.78
2018-10-02T22:48:36.985Z,98835.97
2018-10-02T22:51:05.821Z,98840.00
2018-10-02T22:53:34.646Z,98840.34
2018-10-02T22:56:03.550Z,98844.03
2018-10-02T22:58:32.338Z,98853.13
2018-10-02T23:01:01.095Z,98854.78
2018-10-02T23:03:29.864Z,98855.28
2018-10-02T23:05:58.646Z,98859.31
2018-10-02T23:08:27.468Z,98852.59
2018-10-02T23:10:56.234Z,98857.66
2018-10-02T23:13:24.979Z,98861.70
2018-10-02T23:15:53.758Z,98865.73
2018-10-02T23:18:22.605Z,98866.57
2018-10-02T23:20:51.453Z,98871.95
2018-10-02T23:23:20.243Z,98869.76
2018-10-02T23:25:49.045Z,98875.14
2018-10-02T23:28:17.773Z,98876.98
2018-10-02T23:30:46.616Z,98884.55
2018-10-02T23:33:15.374Z,98884.55
2018-10-02T23:35:44.143Z,98889.08
2018-10-02T23:38:12.930Z,98890.77
2018-10-02T23:40:41.696Z,98888.23
2018-10-02T23:43:10.813Z,98886.39
2018-10-02T23:45:39.651Z,98891.95
2018-10-02T23:48:08.501Z,98892.61
2018-10-02T23:50:37.380Z,98896.14
2018-10-02T23:53:06.210Z,98894.64
2018-10-02T23:55:34.959Z,98894.95
2018-10-02T23:58:03.731Z,98904.36
